Time;durP1;ratioP1;P1;durP2;ratioP2;P2;SDS_P1;SDS_P2;PMS_P1;PMS_P2;Temp;Humidity;BMP_temperature;BMP_pressure;BME280_temperature;BME280_humidity;BME280_pressure;Samples;Min_cycle;Max_cycle;Signal;HPM_P1;HPM_P2
2023/11/12 00:01:46;;;;;;;1.98;1.63;;;25.90;99.90;;;;;;5045468;28;20498;-48
2023/11/12 00:04:12;;;;;;;2.53;1.52;;;25.90;99.90;;;;;;5049358;28;20540;-47
2023/11/12 00:06:41;;;;;;;2.22;1.40;;;25.90;99.90;;;;;;5053210;28;20175;-47
2023/11/12 00:09:08;;;;;;;1.73;1.38;;;25.90;99.90;;;;;;5051642;28;20017;-48
2023/11/12 00:11:35;;;;;;;2.58;1.58;;;25.90;99.90;;;;;;5050659;28;20158;-48
2023/11/12 00:14:01;;;;;;;2.33;1.40;;;25.90;99.90;;;;;;5051430;28;20017;-48
2023/11/12 00:16:27;;;;;;;3.08;1.88;;;25.80;99.90;;;;;;5051637;28;20096;-48
2023/11/12 00:18:54;;;;;;;4.93;1.40;;;25.80;99.90;;;;;;5051500;28;20481;-49
2023/11/12 00:21:20;;;;;;;2.38;1.58;;;25.80;99.90;;;;;;5049942;28;20033;-47
2023/11/12 00:23:49;;;;;;;3.15;1.33;;;25.80;99.90;;;;;;5052238;28;20027;-48
2023/11/12 00:26:16;;;;;;;3.55;1.90;;;25.80;99.90;;;;;;5051762;28;20377;-48
2023/11/12 00:28:42;;;;;;;5.07;1.70;;;25.80;99.90;;;;;;5045885;28;20100;-46
2023/11/12 00:31:07;;;;;;;2.10;1.10;;;25.80;99.90;;;;;;5045029;28;20075;-46
2023/11/12 00:33:33;;;;;;;2.92;1.50;;;25.80;99.90;;;;;;5056377;28;20120;-47
2023/11/12 00:35:59;;;;;;;3.10;1.67;;;25.80;99.90;;;;;;5053451;28;20096;-50
2023/11/12 00:38:25;;;;;;;4.85;1.90;;;25.80;99.90;;;;;;5051345;28;20429;-48
2023/11/12 00:40:51;;;;;;;3.75;1.30;;;25.80;99.90;;;;;;5051745;28;20047;-48
2023/11/12 00:43:17;;;;;;;3.55;1.33;;;25.80;99.90;;;;;;5035360;28;20109;-47
2023/11/12 00:45:43;;;;;;;2.85;1.35;;;25.80;99.90;;;;;;5041153;28;20026;-48
2023/11/12 00:48:09;;;;;;;2.42;1.52;;;25.80;99.90;;;;;;5055336;28;20025;-48
2023/11/12 00:50:35;;;;;;;2.28;1.67;;;25.80;99.90;;;;;;5054795;28;20021;-48
2023/11/12 00:53:01;;;;;;;4.18;1.42;;;25.80;99.90;;;;;;5055255;28;20025;-48
2023/11/12 00:55:27;;;;;;;2.05;1.50;;;25.70;99.90;;;;;;5054967;28;20028;-48
2023/11/12 00:57:52;;;;;;;2.17;1.60;;;25.70;99.90;;;;;;5054793;28;20029;-48
2023/11/12 01:00:18;;;;;;;3.85;1.88;;;25.70;99.90;;;;;;5053158;28;20542;-47
2023/11/12 01:02:44;;;;;;;2.45;1.50;;;25.70;99.90;;;;;;5044454;28;20022;-47
2023/11/12 01:05:10;;;;;;;4.43;2.03;;;25.70;99.90;;;;;;5041310;28;20024;-47
2023/11/12 01:07:36;;;;;;;1.90;1.60;;;25.70;99.90;;;;;;5058939;28;20028;-47
2023/11/12 01:10:03;;;;;;;3.47;1.80;;;25.70;99.90;;;;;;5055011;28;20058;-47
2023/11/12 01:12:29;;;;;;;2.03;1.58;;;25.70;99.90;;;;;;5054612;28;20017;-49
2023/11/12 01:14:55;;;;;;;3.72;1.60;;;25.60;99.90;;;;;;5053299;28;20432;-47
2023/11/12 01:17:21;;;;;;;2.25;1.70;;;25.60;99.90;;;;;;5054751;28;20025;-47
2023/11/12 01:19:47;;;;;;;2.35;1.75;;;25.60;99.90;;;;;;5053634;28;20333;-48
2023/11/12 01:22:13;;;;;;;2.90;1.77;;;25.60;99.90;;;;;;5054327;28;20075;-46
2023/11/12 01:24:38;;;;;;;4.47;1.73;;;25.60;99.90;;;;;;5054726;28;20025;-48
2023/11/12 01:27:04;;;;;;;3.65;1.35;;;25.60;99.90;;;;;;5054537;28;20021;-48
2023/11/12 01:29:30;;;;;;;1.85;1.25;;;25.50;99.90;;;;;;5054276;28;20036;-48
2023/11/12 01:31:56;;;;;;;3.05;1.70;;;25.60;99.90;;;;;;5054474;28;20082;-47
2023/11/12 01:34:22;;;;;;;2.42;1.92;;;25.60;99.90;;;;;;5054478;28;20382;-47
2023/11/12 01:36:48;;;;;;;3.95;1.60;;;25.50;99.90;;;;;;5054088;28;20017;-47
2023/11/12 01:39:14;;;;;;;2.38;1.73;;;25.50;99.90;;;;;;5053024;28;20036;-48
2023/11/12 01:41:40;;;;;;;5.55;2.30;;;25.50;99.90;;;;;;5040590;28;20127;-46
2023/11/12 01:44:06;;;;;;;4.07;1.52;;;25.50;99.90;;;;;;5045453;28;20065;-47
2023/11/12 01:46:33;;;;;;;3.47;1.70;;;25.50;99.90;;;;;;5054128;28;20473;-47
2023/11/12 01:48:59;;;;;;;;;;;25.50;99.90;;;;;;5054606;28;20044;-48
2023/11/12 01:51:27;;;;;;;2.17;1.63;;;25.50;99.90;;;;;;5052433;28;20349;-48
2023/11/12 01:53:53;;;;;;;3.63;1.60;;;25.40;99.90;;;;;;5056186;28;20017;-49
2023/11/12 01:56:21;;;;;;;7.47;1.58;;;25.40;99.90;;;;;;5061270;28;20051;-47
2023/11/12 01:58:51;;;;;;;5.35;1.80;;;25.40;99.90;;;;;;5058115;28;20013;-48
2023/11/12 02:01:17;;;;;;;2.78;1.60;;;25.40;99.90;;;;;;5056413;22;20060;-60
2023/11/12 02:03:44;;;;;;;3.10;1.63;;;25.40;99.90;;;;;;5034713;28;20024;-62
2023/11/12 02:06:12;;;;;;;;;;;25.40;99.90;;;;;;5033972;28;20026;-62
2023/11/12 02:08:41;;;;;;;2.78;1.52;;;25.40;99.90;;;;;;5033825;28;20336;-60
2023/11/12 02:11:09;;;;;;;3.63;2.08;;;25.40;99.90;;;;;;5035897;28;20493;-64
2023/11/12 02:13:42;;;;;;;3.13;1.73;;;25.40;99.90;;;;;;5033620;28;20024;-63
2023/11/12 02:16:09;;;;;;;2.15;1.67;;;25.40;99.90;;;;;;5033664;28;20040;-64
2023/11/12 02:18:35;;;;;;;3.60;1.70;;;25.30;99.90;;;;;;5051190;28;20025;-64
2023/11/12 02:21:03;;;;;;;2.83;1.80;;;25.30;99.90;;;;;;5048060;28;20112;-63
2023/11/12 02:23:29;;;;;;;3.22;1.48;;;25.30;99.90;;;;;;5050419;28;20025;-63
2023/11/12 02:25:57;;;;;;;2.22;1.38;;;25.30;99.90;;;;;;5037899;28;20036;-63
2023/11/12 02:28:23;;;;;;;2.47;1.90;;;25.20;99.90;;;;;;5037345;28;20025;-62
2023/11/12 02:30:53;;;;;;;3.53;1.75;;;25.20;99.90;;;;;;5034094;28;20478;-62
2023/11/12 02:33:21;;;;;;;2.78;1.60;;;25.20;99.90;;;;;;5034437;28;20040;-62
2023/11/12 02:35:47;;;;;;;27.48;2.25;;;25.20;99.90;;;;;;5002137;28;20053;-63
2023/11/12 02:38:13;;;;;;;1.23;1.13;;;25.20;99.90;;;;;;5016096;28;20057;-63
2023/11/12 02:40:38;;;;;;;2.33;1.67;;;25.20;99.90;;;;;;5017858;28;20030;-63
2023/11/12 02:43:05;;;;;;;2.90;1.15;;;25.10;99.90;;;;;;5032579;28;20033;-63
2023/11/12 02:45:30;;;;;;;4.45;1.52;;;25.10;99.90;;;;;;5031635;28;20026;-62
2023/11/12 02:47:56;;;;;;;3.08;1.30;;;25.10;99.90;;;;;;5031652;28;20497;-62
2023/11/12 02:50:26;;;;;;;3.03;1.75;;;25.10;99.90;;;;;;5031721;28;20481;-63
2023/11/12 02:52:53;;;;;;;2.70;1.33;;;25.10;99.90;;;;;;5033261;28;20022;-63
2023/11/12 02:55:20;;;;;;;4.47;1.63;;;25.10;99.90;;;;;;5033244;28;20028;-63
2023/11/12 02:57:46;;;;;;;2.83;1.70;;;25.00;99.90;;;;;;5033018;28;20029;-63
2023/11/12 03:00:14;;;;;;;4.70;2.20;;;25.00;99.90;;;;;;5033321;28;20124;-62
2023/11/12 03:02:40;;;;;;;2.10;1.40;;;25.00;99.90;;;;;;5032861;28;20548;-62
2023/11/12 03:05:08;;;;;;;1.40;1.20;;;25.00;99.90;;;;;;5032305;28;20026;-62
2023/11/12 03:07:35;;;;;;;4.72;1.58;;;25.00;99.90;;;;;;5032756;28;20017;-63
2023/11/12 03:10:02;;;;;;;4.35;1.85;;;25.00;99.90;;;;;;5032717;28;20055;-63
2023/11/12 03:12:28;;;;;;;4.53;1.50;;;25.00;99.90;;;;;;5032841;28;20028;-63
2023/11/12 03:14:54;;;;;;;2.28;1.38;;;25.00;99.90;;;;;;5032867;28;20258;-63
2023/11/12 03:17:19;;;;;;;1.75;1.55;;;24.90;99.90;;;;;;5032838;28;20026;-62
2023/11/12 03:19:49;;;;;;;1.33;1.20;;;24.90;99.90;;;;;;5032522;28;20061;-63
2023/11/12 03:22:15;;;;;;;3.13;1.40;;;24.90;99.90;;;;;;5032614;28;20190;-62
2023/11/12 03:24:41;;;;;;;2.38;1.40;;;24.90;99.90;;;;;;5031197;28;20559;-63
2023/11/12 03:27:08;;;;;;;3.03;1.30;;;24.80;99.90;;;;;;5032658;28;20057;-63
2023/11/12 03:29:34;;;;;;;3.78;1.50;;;24.80;99.90;;;;;;5032530;28;20036;-62
2023/11/12 03:32:00;;;;;;;4.55;1.42;;;24.80;99.90;;;;;;5032387;28;20021;-62
2023/11/12 03:34:26;;;;;;;2.30;1.05;;;24.80;99.90;;;;;;5032307;28;20026;-61
2023/11/12 03:36:52;;;;;;;2.58;1.30;;;24.80;99.90;;;;;;5032610;28;20026;-61
2023/11/12 03:39:18;;;;;;;2.63;1.50;;;24.80;99.90;;;;;;5032258;28;20026;-62
2023/11/12 03:41:43;;;;;;;2.40;1.58;;;24.80;99.90;;;;;;5032219;28;20052;-61
2023/11/12 03:44:09;;;;;;;2.67;1.50;;;24.70;99.90;;;;;;5032288;28;20432;-60
2023/11/12 03:46:35;;;;;;;4.80;1.95;;;24.70;99.90;;;;;;5032303;28;20543;-61
2023/11/12 03:49:01;;;;;;;2.63;1.30;;;24.70;99.90;;;;;;5032105;28;20055;-62
2023/11/12 03:51:27;;;;;;;3.65;1.45;;;24.70;99.90;;;;;;5032295;28;20025;-60
2023/11/12 03:53:53;;;;;;;2.53;1.40;;;24.70;99.90;;;;;;5031195;28;20087;-62
2023/11/12 03:56:19;;;;;;;2.95;1.70;;;24.70;99.90;;;;;;5032252;28;20119;-58
2023/11/12 03:58:45;;;;;;;5.47;1.77;;;24.70;99.90;;;;;;5032105;28;20014;-58
2023/11/12 04:01:11;;;;;;;3.38;1.40;;;24.70;99.90;;;;;;5032653;28;20045;-60
2023/11/12 04:03:36;;;;;;;3.10;1.63;;;24.70;99.90;;;;;;5030586;28;20018;-60
2023/11/12 04:06:02;;;;;;;3.88;2.30;;;24.70;99.90;;;;;;5030568;28;20124;-59
2023/11/12 04:08:28;;;;;;;3.47;2.13;;;24.70;99.90;;;;;;5031932;28;20108;-63
2023/11/12 04:10:54;;;;;;;5.47;2.10;;;24.70;99.90;;;;;;5032062;28;20025;-62
2023/11/12 04:13:19;;;;;;;3.08;2.13;;;24.60;99.90;;;;;;5031793;28;20478;-62
2023/11/12 04:15:45;;;;;;;4.00;1.88;;;24.60;99.90;;;;;;5031816;28;20386;-61
2023/11/12 04:18:11;;;;;;;4.95;2.33;;;24.60;99.90;;;;;;5033206;28;20469;-62
2023/11/12 04:20:37;;;;;;;5.25;2.92;;;24.60;99.90;;;;;;5036074;28;20038;-61
2023/11/12 04:23:02;;;;;;;5.28;3.05;;;24.60;99.90;;;;;;5036048;28;20429;-61
2023/11/12 04:25:28;;;;;;;6.70;3.55;;;24.60;99.90;;;;;;5036082;28;20021;-61
2023/11/12 04:27:54;;;;;;;5.43;3.42;;;24.60;99.90;;;;;;5036066;28;20136;-61
2023/11/12 04:30:19;;;;;;;7.50;4.03;;;24.60;99.90;;;;;;5035883;28;20033;-60
2023/11/12 04:32:45;;;;;;;8.07;4.00;;;24.60;99.90;;;;;;5035685;28;20021;-59
2023/11/12 04:35:11;;;;;;;6.65;4.47;;;24.60;99.90;;;;;;5035800;28;20045;-60
2023/11/12 04:37:40;;;;;;;7.35;4.80;;;24.60;99.90;;;;;;5034306;28;20025;-60
2023/11/12 04:40:11;;;;;;;7.65;4.95;;;24.50;99.90;;;;;;5035557;28;20037;-61
2023/11/12 04:42:38;;;;;;;10.57;4.75;;;24.50;99.90;;;;;;5035517;28;20101;-61
2023/11/12 04:45:05;;;;;;;9.98;4.70;;;24.50;99.90;;;;;;5035597;28;20385;-62
2023/11/12 04:47:31;;;;;;;9.93;5.80;;;24.50;99.90;;;;;;5034215;28;20075;-60
2023/11/12 04:49:56;;;;;;;8.32;5.38;;;24.50;99.90;;;;;;5035628;28;20021;-59
2023/11/12 04:52:22;;;;;;;9.55;6.13;;;24.50;99.90;;;;;;5021219;28;20088;-60
2023/11/12 04:54:50;;;;;;;9.40;5.40;;;24.50;99.90;;;;;;5014634;28;20030;-64
2023/11/12 04:57:16;;;;;;;8.77;5.72;;;24.50;99.90;;;;;;5013627;28;20475;-63
2023/11/12 04:59:42;;;;;;;10.13;6.78;;;24.50;99.90;;;;;;5014795;28;20041;-62
2023/11/12 05:02:10;;;;;;;10.02;6.10;;;24.50;99.90;;;;;;5014866;28;20045;-61
2023/11/12 05:04:36;;;;;;;8.73;5.50;;;24.50;99.90;;;;;;5015244;28;20032;-62
2023/11/12 05:07:02;;;;;;;10.60;6.63;;;24.40;99.90;;;;;;5015485;28;20029;-63
2023/11/12 05:09:28;;;;;;;10.65;7.22;;;24.40;99.90;;;;;;5015480;28;20022;-62
2023/11/12 05:11:54;;;;;;;11.25;7.53;;;24.50;99.90;;;;;;5030449;28;20041;-62
2023/11/12 05:14:20;;;;;;;9.40;6.35;;;24.40;99.90;;;;;;5015168;28;20026;-59
2023/11/12 05:16:47;;;;;;;13.95;8.23;;;24.40;99.90;;;;;;5015091;28;20096;-62
2023/11/12 05:19:12;;;;;;;13.73;9.57;;;24.40;99.90;;;;;;5015143;28;20117;-61
2023/11/12 05:21:44;;;;;;;12.88;8.60;;;24.40;99.90;;;;;;5015086;28;20105;-61
2023/11/12 05:24:10;;;;;;;13.45;8.13;;;24.40;99.90;;;;;;5030288;28;20430;-61
2023/11/12 05:26:35;;;;;;;15.75;9.32;;;24.40;99.90;;;;;;5014936;28;20102;-62
2023/11/12 05:29:03;;;;;;;15.18;10.77;;;24.40;99.90;;;;;;5014770;28;20104;-61
2023/11/12 05:31:32;;;;;;;15.77;11.25;;;24.40;99.90;;;;;;5014985;28;20433;-61
2023/11/12 05:33:59;;;;;;;19.60;11.23;;;24.30;99.90;;;;;;5014915;28;20036;-61
2023/11/12 05:36:24;;;;;;;14.75;10.25;;;24.40;99.90;;;;;;5014751;28;20026;-64
2023/11/12 05:38:50;;;;;;;17.88;12.77;;;24.30;99.90;;;;;;5014597;28;20029;-61
2023/11/12 05:41:16;;;;;;;19.48;12.35;;;24.30;99.90;;;;;;5014732;28;20025;-61
2023/11/12 05:43:42;;;;;;;18.70;13.32;;;24.30;99.90;;;;;;5014462;28;20034;-60
2023/11/12 05:46:08;;;;;;;17.27;12.77;;;24.30;99.90;;;;;;5014665;28;20105;-61
2023/11/12 05:48:35;;;;;;;22.05;15.20;;;24.30;99.90;;;;;;5013260;28;20018;-61
2023/11/12 05:51:02;;;;;;;17.25;12.77;;;24.30;99.90;;;;;;5014635;28;20033;-62
2023/11/12 05:53:28;;;;;;;19.38;13.43;;;24.30;99.90;;;;;;5014449;28;20022;-62
2023/11/12 05:55:53;;;;;;;22.50;15.63;;;24.30;99.90;;;;;;5014461;28;20034;-62
2023/11/12 05:58:19;;;;;;;22.23;15.30;;;24.30;99.90;;;;;;5014314;28;20070;-60
2023/11/12 06:00:45;;;;;;;21.63;15.57;;;24.30;99.90;;;;;;5014108;28;20061;-62
2023/11/12 06:03:11;;;;;;;23.75;16.95;;;24.20;99.90;;;;;;5014331;28;20532;-61
2023/11/12 06:05:36;;;;;;;23.40;17.05;;;24.20;99.90;;;;;;5013026;28;20026;-60
2023/11/12 06:08:03;;;;;;;19.05;14.77;;;24.20;99.90;;;;;;5014299;28;20026;-61
2023/11/12 06:10:29;;;;;;;21.90;14.87;;;24.20;99.90;;;;;;5014464;28;20029;-61
2023/11/12 06:12:56;;;;;;;23.80;14.63;;;24.20;99.90;;;;;;5014101;28;20022;-61
2023/11/12 06:15:26;;;;;;;23.02;17.27;;;24.20;99.90;;;;;;5014031;28;20085;-61
2023/11/12 06:17:55;;;;;;;26.20;17.58;;;24.20;99.90;;;;;;5013879;28;20057;-61
2023/11/12 06:20:21;;;;;;;24.35;18.25;;;24.20;99.90;;;;;;5013916;28;20084;-61
2023/11/12 06:22:47;;;;;;;22.55;16.88;;;24.20;99.90;;;;;;5029089;28;20029;-61
2023/11/12 06:25:13;;;;;;;26.77;19.58;;;24.20;99.90;;;;;;5013917;28;20030;-61
2023/11/12 06:27:41;;;;;;;27.55;20.10;;;24.20;99.90;;;;;;5013736;28;20044;-61
2023/11/12 06:30:08;;;;;;;28.58;20.20;;;24.10;99.90;;;;;;5013620;28;20544;-61
2023/11/12 06:32:34;;;;;;;25.20;18.90;;;24.20;99.90;;;;;;5013946;28;20026;-61
2023/11/12 06:35:00;;;;;;;28.45;20.13;;;24.20;99.90;;;;;;5013656;28;20084;-61
2023/11/12 06:37:26;;;;;;;25.75;18.23;;;24.10;99.90;;;;;;5013551;28;20029;-61
2023/11/12 06:39:52;;;;;;;29.48;20.33;;;24.10;99.90;;;;;;5011380;28;20034;-61
2023/11/12 06:42:20;;;;;;;25.88;18.85;;;24.10;99.90;;;;;;5013500;28;20032;-61
2023/11/12 06:44:46;;;;;;;32.28;19.30;;;24.10;99.90;;;;;;5013459;28;20064;-61
2023/11/12 06:47:14;;;;;;;28.38;19.90;;;24.10;99.90;;;;;;5013471;28;20026;-61
2023/11/12 06:49:40;;;;;;;;;;;24.10;99.90;;;;;;5013945;28;20026;-61
2023/11/12 06:52:06;;;;;;;24.00;17.10;;;24.10;99.90;;;;;;5028701;28;20019;-61
2023/11/12 06:54:32;;;;;;;26.25;18.42;;;24.10;99.90;;;;;;5013493;28;20375;-61
2023/11/12 06:56:59;;;;;;;23.20;17.10;;;24.10;99.90;;;;;;5028758;28;20025;-61
2023/11/12 06:59:25;;;;;;;23.60;15.93;;;24.10;99.90;;;;;;5013228;28;20359;-61
2023/11/12 07:01:51;;;;;;;21.35;15.93;;;24.10;99.90;;;;;;5013121;28;20148;-61
2023/11/12 07:04:17;;;;;;;24.73;17.38;;;24.10;99.90;;;;;;5013037;28;20022;-60
2023/11/12 07:06:43;;;;;;;26.23;16.80;;;24.00;99.90;;;;;;5011747;28;20030;-59
2023/11/12 07:09:10;;;;;;;21.63;14.95;;;24.10;99.90;;;;;;5013130;28;20098;-61
2023/11/12 07:11:36;;;;;;;24.35;16.17;;;24.10;99.90;;;;;;5028645;28;20033;-60
2023/11/12 07:14:02;;;;;;;22.55;16.33;;;24.00;99.90;;;;;;5028439;28;20046;-60
2023/11/12 07:16:28;;;;;;;17.75;13.25;;;24.10;99.90;;;;;;5013046;28;20033;-60
2023/11/12 07:18:55;;;;;;;21.45;15.00;;;24.00;99.90;;;;;;5012818;28;20022;-61
2023/11/12 07:21:29;;;;;;;19.48;12.40;;;24.00;99.90;;;;;;5012887;28;20029;-61
2023/11/12 07:23:55;;;;;;;18.38;12.82;;;24.00;99.90;;;;;;5012718;28;20046;-61
2023/11/12 07:26:23;;;;;;;19.23;13.23;;;24.00;99.90;;;;;;5012826;28;20482;-60
2023/11/12 07:28:49;;;;;;;18.60;11.88;;;24.00;99.90;;;;;;5012783;28;20022;-61
2023/11/12 07:31:14;;;;;;;17.08;12.27;;;24.00;99.90;;;;;;5012757;28;20028;-61
2023/11/12 07:33:40;;;;;;;15.50;12.07;;;24.00;99.90;;;;;;5012634;28;20033;-61
2023/11/12 07:36:07;;;;;;;16.08;12.38;;;24.00;99.90;;;;;;5012745;28;20029;-61
2023/11/12 07:38:33;;;;;;;18.17;12.90;;;24.10;99.90;;;;;;5012598;28;20029;-61
2023/11/12 07:40:58;;;;;;;12.48;9.80;;;24.00;99.90;;;;;;5012555;28;20045;-61
2023/11/12 07:43:25;;;;;;;17.75;11.10;;;24.10;99.90;;;;;;5012534;28;20097;-61
2023/11/12 07:45:50;;;;;;;17.75;12.77;;;24.10;99.90;;;;;;5011274;28;20022;-60
2023/11/12 07:48:17;;;;;;;17.40;12.45;;;24.10;99.90;;;;;;5012520;28;20025;-60
2023/11/12 07:50:43;;;;;;;16.38;11.65;;;24.10;99.90;;;;;;5012325;28;20018;-61
2023/11/12 07:53:08;;;;;;;15.32;10.80;;;24.10;99.90;;;;;;5027784;28;20026;-60
2023/11/12 07:55:34;;;;;;;13.95;10.10;;;24.00;99.90;;;;;;5012714;28;20018;-61
2023/11/12 07:58:00;;;;;;;15.52;11.20;;;24.00;99.90;;;;;;5012514;28;20037;-61
2023/11/12 08:00:26;;;;;;;14.43;9.15;;;24.00;99.90;;;;;;5027490;28;20057;-60
2023/11/12 08:02:52;;;;;;;13.98;10.48;;;24.10;99.90;;;;;;5012392;28;20422;-61
2023/11/12 08:05:18;;;;;;;13.05;9.15;;;24.10;99.90;;;;;;5012416;28;20529;-61
2023/11/12 08:07:45;;;;;;;11.07;8.45;;;24.10;99.90;;;;;;5012277;28;20121;-61
2023/11/12 08:10:11;;;;;;;12.37;8.37;;;24.10;99.90;;;;;;5012211;28;20047;-61
2023/11/12 08:12:39;;;;;;;16.30;10.85;;;24.10;99.90;;;;;;5012393;28;20537;-60
2023/11/12 08:15:10;;;;;;;13.27;9.88;;;24.20;99.90;;;;;;5012346;28;20065;-60
2023/11/12 08:17:37;;;;;;;12.98;9.85;;;24.20;99.90;;;;;;5011191;28;20443;-60
2023/11/12 08:20:04;;;;;;;12.25;9.60;;;24.20;99.90;;;;;;5011966;28;20072;-60
2023/11/12 08:22:30;;;;;;;12.00;8.90;;;24.30;99.90;;;;;;5012268;28;20059;-61
2023/11/12 08:24:56;;;;;;;12.73;9.15;;;24.30;99.90;;;;;;5012124;28;20342;-60
2023/11/12 08:27:22;;;;;;;12.50;8.90;;;24.30;99.90;;;;;;5012044;28;20026;-61
2023/11/12 08:29:51;;;;;;;10.20;8.15;;;24.30;99.90;;;;;;5027186;28;20018;-61
2023/11/12 08:32:17;;;;;;;11.93;8.18;;;24.40;99.90;;;;;;5011903;28;20030;-61
2023/11/12 08:34:43;;;;;;;11.57;8.02;;;24.40;99.90;;;;;;5012005;28;20022;-61
2023/11/12 08:37:09;;;;;;;9.95;7.78;;;24.40;99.90;;;;;;5027379;28;20025;-60
2023/11/12 08:39:36;;;;;;;9.07;7.20;;;24.50;99.90;;;;;;5011936;28;20045;-60
2023/11/12 08:42:02;;;;;;;8.77;7.15;;;24.50;99.90;;;;;;5011042;28;20514;-60
2023/11/12 08:44:27;;;;;;;11.50;7.63;;;24.60;99.90;;;;;;5012071;28;20116;-59
2023/11/12 08:46:53;;;;;;;8.15;5.80;;;24.60;99.90;;;;;;5011872;28;20026;-59
2023/11/12 08:49:19;;;;;;;9.20;6.43;;;24.60;99.90;;;;;;5010759;28;20034;-59
2023/11/12 08:51:45;;;;;;;11.07;6.38;;;24.60;99.90;;;;;;5011826;28;20059;-60
2023/11/12 08:54:12;;;;;;;9.40;6.60;;;24.70;99.90;;;;;;5027105;28;20426;-61
2023/11/12 08:56:38;;;;;;;10.18;6.22;;;24.70;99.90;;;;;;5012167;28;20147;-60
2023/11/12 08:59:04;;;;;;;10.68;6.60;;;24.70;99.90;;;;;;5011778;28;20018;-60
2023/11/12 09:01:37;;;;;;;9.93;5.88;;;24.80;99.90;;;;;;5011571;28;20053;-60
2023/11/12 09:04:04;;;;;;;11.20;5.38;;;24.80;99.90;;;;;;5013969;28;20841;-60
2023/11/12 09:06:30;;;;;;;12.27;5.43;;;24.90;99.90;;;;;;5015413;28;20113;-60
2023/11/12 09:08:56;;;;;;;7.13;5.25;;;24.90;99.90;;;;;;5015412;28;20026;-60
2023/11/12 09:11:22;;;;;;;6.95;4.75;;;24.90;99.90;;;;;;5015335;28;20117;-61
2023/11/12 09:13:48;;;;;;;5.47;4.35;;;24.90;99.90;;;;;;5015317;28;20026;-61
2023/11/12 09:16:14;;;;;;;7.85;4.25;;;24.90;99.90;;;;;;5015211;28;20377;-61
2023/11/12 09:18:40;;;;;;;6.55;3.95;;;24.90;99.90;;;;;;5015275;28;20034;-60
2023/11/12 09:21:06;;;;;;;7.72;5.10;;;24.90;99.90;;;;;;5015002;28;20532;-61
2023/11/12 09:23:32;;;;;;;6.53;4.35;;;24.90;99.90;;;;;;5015045;28;20033;-61
2023/11/12 09:25:58;;;;;;;5.43;3.95;;;24.90;99.90;;;;;;5014963;28;20033;-60
2023/11/12 09:28:23;;;;;;;6.15;3.97;;;24.90;99.90;;;;;;5015022;28;20026;-60
2023/11/12 09:30:49;;;;;;;6.82;4.28;;;25.00;99.90;;;;;;5014825;28;20071;-61
2023/11/12 09:33:15;;;;;;;11.32;4.75;;;25.00;99.90;;;;;;5014960;28;20083;-61
2023/11/12 09:35:41;;;;;;;7.15;3.63;;;25.00;99.90;;;;;;5015073;28;20052;-59
2023/11/12 09:38:07;;;;;;;5.75;3.60;;;25.10;99.90;;;;;;5014743;28;20101;-61
2023/11/12 09:40:33;;;;;;;8.23;4.28;;;25.10;99.90;;;;;;5029835;28;20402;-60
2023/11/12 09:42:59;;;;;;;9.25;4.47;;;25.10;99.90;;;;;;5014849;28;20025;-61
2023/11/12 09:45:28;;;;;;;6.30;4.00;;;25.20;99.90;;;;;;5013423;28;20037;-61
2023/11/12 09:47:53;;;;;;;5.72;3.88;;;25.20;99.90;;;;;;5014606;28;20022;-60
2023/11/12 09:50:24;;;;;;;6.07;3.45;;;25.30;99.90;;;;;;5014621;28;20029;-60
2023/11/12 09:52:52;;;;;;;6.43;3.63;;;25.40;99.90;;;;;;5014575;28;20095;-60
2023/11/12 09:55:20;;;;;;;6.38;3.78;;;25.40;99.90;;;;;;5014541;28;20033;-60
2023/11/12 09:57:46;;;;;;;5.68;3.83;;;25.40;99.90;;;;;;5013235;28;20057;-60
2023/11/12 10:00:13;;;;;;;5.60;3.67;;;25.50;99.90;;;;;;5014707;28;20049;-60
2023/11/12 10:02:40;;;;;;;8.75;4.25;;;25.60;99.90;;;;;;5014354;28;20120;-60
2023/11/12 10:05:13;;;;;;;4.30;3.33;;;25.60;99.90;;;;;;5014198;28;20028;-60
2023/11/12 10:07:40;;;;;;;5.25;3.42;;;25.70;99.90;;;;;;5014177;28;20072;-59
2023/11/12 10:10:26;;;;;;;6.00;3.20;;;25.70;99.90;;;;;;5013000;28;20029;-60
2023/11/12 10:12:55;;;;;;;5.93;3.08;;;25.80;99.90;;;;;;5014258;28;20022;-60
2023/11/12 10:15:29;;;;;;;6.35;3.50;;;25.80;99.90;;;;;;5013106;28;20034;-60
2023/11/12 10:17:56;;;;;;;7.90;4.45;;;25.90;99.90;;;;;;5013968;28;20088;-60
2023/11/12 10:20:51;;;;;;;5.13;2.85;;;25.90;99.90;;;;;;5013876;28;20107;-60
2023/11/12 10:23:21;;;;;;;6.80;3.35;;;26.00;99.90;;;;;;5000112;28;20033;-60
2023/11/12 10:25:50;;;;;;;4.50;2.78;;;26.00;99.90;;;;;;5013913;28;20032;-60
2023/11/12 10:28:16;;;;;;;4.55;3.10;;;26.10;99.90;;;;;;5013911;28;20060;-60
2023/11/12 10:30:43;;;;;;;4.80;3.10;;;26.10;99.90;;;;;;5013857;28;20225;-61
2023/11/12 10:33:23;;;;;;;4.07;2.80;;;26.20;99.90;;;;;;5013812;28;20137;-60
2023/11/12 10:35:50;;;;;;;4.13;2.83;;;26.20;99.90;;;;;;5013753;28;20033;-60
2023/11/12 10:38:17;;;;;;;4.00;2.42;;;26.30;99.90;;;;;;5013739;28;20026;-60
2023/11/12 10:41:05;;;;;;;5.70;3.17;;;26.30;99.90;;;;;;5013729;28;20046;-60
2023/11/12 10:43:32;;;;;;;4.25;2.70;;;26.30;99.90;;;;;;5013816;28;20026;-59
2023/11/12 10:46:03;;;;;;;5.05;3.13;;;26.40;99.90;;;;;;5013543;28;20036;-59
2023/11/12 10:48:36;;;;;;;4.07;2.47;;;26.40;99.90;;;;;;5013415;28;20037;-60
2023/11/12 10:51:05;;;;;;;3.53;2.70;;;26.50;99.90;;;;;;5013648;28;20033;-60
2023/11/12 10:53:34;;;;;;;3.70;2.65;;;26.50;99.90;;;;;;5013701;28;20171;-60
2023/11/12 10:56:02;;;;;;;6.35;2.63;;;26.50;99.90;;;;;;5013384;28;20506;-59
2023/11/12 10:58:34;;;;;;;7.63;2.65;;;26.50;99.90;;;;;;5013228;28;20018;-60
2023/11/12 11:01:03;;;;;;;9.15;2.63;;;26.50;99.90;;;;;;5028254;28;20081;-60
2023/11/12 11:03:31;;;;;;;3.42;2.58;;;26.60;99.90;;;;;;5013154;28;20100;-60
2023/11/12 11:06:02;;;;;;;4.40;2.47;;;26.60;99.90;;;;;;5013132;28;20025;-60
2023/11/12 11:08:34;;;;;;;6.18;2.30;;;26.60;99.90;;;;;;5012163;28;20435;-60
2023/11/12 11:11:02;;;;;;;4.80;2.15;;;26.70;99.90;;;;;;5012991;28;20018;-61
2023/11/12 11:13:28;;;;;;;4.65;2.50;;;26.70;99.90;;;;;;5013028;28;20026;-59
2023/11/12 11:16:00;;;;;;;3.58;2.25;;;26.70;99.90;;;;;;5013031;28;20029;-59
2023/11/12 11:18:32;;;;;;;5.65;2.17;;;26.80;99.90;;;;;;5012891;28;20037;-59
2023/11/12 11:21:15;;;;;;;5.07;2.75;;;26.80;99.90;;;;;;5011578;28;20076;-59
2023/11/12 11:23:49;;;;;;;5.57;2.20;;;26.80;99.90;;;;;;5032848;28;20021;-59
2023/11/12 11:26:30;;;;;;;4.35;2.40;;;26.90;99.90;;;;;;5032294;28;20071;-58
2023/11/12 11:29:05;;;;;;;6.75;2.33;;;26.90;99.90;;;;;;5032580;28;20056;-59
2023/11/12 11:31:34;;;;;;;6.93;2.75;;;26.90;99.90;;;;;;5031996;28;20025;-59
2023/11/12 11:34:02;;;;;;;5.45;2.35;;;27.00;99.90;;;;;;5031656;28;20354;-59
2023/11/12 11:36:30;;;;;;;3.75;1.95;;;27.00;99.90;;;;;;5031839;28;20024;-59
2023/11/12 11:39:12;;;;;;;4.18;2.53;;;27.00;99.90;;;;;;5032016;28;20028;-59
2023/11/12 11:41:50;;;;;;;4.50;2.15;;;27.00;99.90;;;;;;5031793;28;20026;-59
2023/11/12 11:44:37;;;;;;;2.95;1.88;;;27.00;99.90;;;;;;5032499;28;20032;-59
2023/11/12 11:47:09;;;;;;;;;;;27.10;99.90;;;;;;5030863;28;20048;-57
2023/11/12 11:49:35;;;;;;;1.30;0.30;;;27.10;99.90;;;;;;5030618;28;20334;-58
2023/11/12 11:52:01;;;;;;;1.73;0.60;;;27.20;99.90;;;;;;5031680;28;20055;-58
2023/11/12 11:54:31;;;;;;;1.55;0.50;;;27.30;99.90;;;;;;5030892;28;20024;-59
2023/11/12 11:56:57;;;;;;;1.52;0.80;;;27.30;99.90;;;;;;5030623;28;20025;-59
2023/11/12 11:59:24;;;;;;;1.43;0.60;;;27.40;99.90;;;;;;5031407;28;20018;-59
2023/11/12 12:01:59;;;;;;;3.53;0.43;;;27.50;99.90;;;;;;5030673;28;20055;-59
2023/11/12 12:04:25;;;;;;;5.05;0.50;;;27.60;99.90;;;;;;5030144;28;20393;-59
2023/11/12 12:06:51;;;;;;;1.30;0.50;;;27.70;99.90;;;;;;5031463;28;20043;-58
2023/11/12 12:09:18;;;;;;;3.03;0.40;;;27.70;99.90;;;;;;5030873;28;20363;-58
2023/11/12 12:11:52;;;;;;;3.72;1.00;;;27.80;99.90;;;;;;5031975;28;20148;-58
2023/11/12 12:14:20;;;;;;;4.00;0.95;;;27.90;99.90;;;;;;5031577;28;20104;-59
2023/11/12 12:16:46;;;;;;;2.47;0.60;;;27.90;99.90;;;;;;5031787;28;20026;-57
2023/11/12 12:19:19;;;;;;;1.17;0.52;;;28.00;99.90;;;;;;5031870;28;20427;-56
2023/11/12 12:21:49;;;;;;;0.85;0.50;;;28.10;99.90;;;;;;5031249;28;20029;-57
2023/11/12 12:24:17;;;;;;;2.40;0.60;;;28.10;99.90;;;;;;5030660;28;20022;-60
2023/11/12 12:26:44;;;;;;;3.03;0.55;;;28.20;99.90;;;;;;5030765;28;20389;-58
2023/11/12 12:29:20;;;;;;;4.70;0.65;;;28.20;99.90;;;;;;5032064;28;20025;-58
2023/11/12 12:31:48;;;;;;;11.73;1.40;;;28.20;99.90;;;;;;5031791;28;20026;-58
2023/11/12 12:34:16;;;;;;;22.83;1.60;;;28.30;99.90;;;;;;5030591;28;20022;-58
2023/11/12 12:37:09;;;;;;;8.05;0.93;;;28.30;99.90;;;;;;5031941;28;20036;-59
2023/11/12 12:39:56;;;;;;;9.05;1.00;;;28.30;99.90;;;;;;5034864;28;20067;-60
2023/11/12 12:42:24;;;;;;;;;;;28.20;99.90;;;;;;5036045;28;20021;-59
2023/11/12 12:44:59;;;;;;;7.75;1.27;;;28.20;99.90;;;;;;5035319;28;20000;-59